Relevés horaires Bouveret (Suisse)


Relevés horaires à Bouveret - Jeudi 18 Janv. 2018
Heure UTC1 Température [°C] Vent [km/h] Hum. [%] Pres.4 [hPa] Visi. [Km] Nébu. [octa] Préc.5 [mm] Cond.
2m. Res. Ros. Dir.2 Vit. Moy. Raf.3
21:00 5.3 5.3 4.6 SO 3.7 -- 14.8 95 1014.9(-1.0/3h) -- -- -- --
20:00 5.8 4.2 4.4 SSE 7.4 -- 14.8 91 1015.4(-0.9/3h) -- -- -- --
19:00 5.5 2.7 4.7 O 13.0 -- 14.8 95 1015.5(-0.8/3h) -- -- -- --
18:00 4.4 4.4 3.8 S 1.9 -- 13.0 96 1016.1(-0.2/3h) -- -- -- --
17:00 4.3 2.5 3.7 SSE 7.4 -- 9.3 96 1016.6(0.1/3h) -- -- -- --
16:00 4.5 4.5 3.8 SE 3.7 -- 9.3 95 1016.5(-1.2/3h) -- -- -- --
15:00 4.4 4.4 3.6 SE 3.7 -- 13.0 95 1016.3(-2.5/3h) -- -- -- --
14:00 4.2 4.2 3.4 SSE 3.7 -- 9.3 95 1016.7(-2.4/3h) -- -- -- --
13:00 3.9 3.9 2.9 ESE 1.9 -- 13.0 93 1017.8(-1.6/3h) -- -- -- --
12:00 3.8 3.8 2.7 SSE 3.7 -- 31.5 93 1019(-0.1/3h) -- -- -- --
11:00 3.6 1.2 2.3 SSE 9.3 -- 14.8 91 1019.3(-0.1/3h) -- -- -- --
10:00 3.8 2.5 1.5 SSE 5.6 -- 11.1 85 1019.5(0.4/3h) -- -- -- --
09:00 4.5 4.5 0.7 S 1.9 -- 31.5 76 1018.8(-0.6/3h) -- -- -- --
08:00 5.6 4.5 0.9 ESE 5.6 -- 25.9 72 1019.1(-0.6/3h) -- -- -- --
07:00 5.8 3.4 0.4 OSO 11.1 -- 31.5 68 1018.8(-0.5/3h) -- -- -- --
06:00 5.0 3.3 -0.7 E 7.4 -- 27.8 67 1019.3(-0.4/3h) -- -- -- --
05:00 5.3 3.2 -1.2 ESE 9.3 -- 18.5 63 1019.8(-1.5/3h) -- -- -- --
04:00 5.2 5.2 -1.1 S 1.9 -- 18.5 64 1019.4(-2.8/3h) -- -- -- --
03:00 5.2 2.7 -2.4 SE 11.1 -- 25.9 58 1019.7(-2.9/3h) -- -- -- --
02:00 4.5 2.2 -1.8 SE 9.3 -- 20.4 64 1021.5(-1.5/3h) -- -- -- --
01:00 4.7 2.5 -1.8 SSE 9.3 -- 25.9 63 1022.4(0.2/3h) -- -- -- --
00:00 3.4 0.5 -0.6 ESE 11.1 -- 33.3 75 1023(0.2/3h) -- -- -- --

1 Coordinated Universal Time. Actuellement il est 22:00 locale et 21:00 UTC.

2 Le vent souffle depuis la direction indiquée vers la direction oposée.

3 Les rafales max. sont disponible 40 min après l'heure du relevé.

4 Pour les stations d'altitude (plus de 600m) le géopotentiel du niveau le plus proche de la pression obligatoire est indiqué.

5 Les stations disposant d'un diffuseur peuvent indiquer "trace". Cela signifie que des précipitations ont touchés le sol mais que la quantité est inférieure à 0.1 mm.

Récapitulatif de la journée
Température [°C] Vent [km/h] Ensoleillement4 [h] Precipitations totale5 [mm] Pression [Hpa]
Min1 Max.2 Moy.3 Max. Min Max.
3.1 5.8 0 33.3 0 h 0 min 0 1014.9 1023.0

1 Température minimale relevée entre 18:00 UTC la veille et 18:00 UTC le jour donné.

2 Température maximale relevée entre 06:00 UTC le jour donné et 06:00 UTC le lendemain.

3 Vent moyen de la journée basé sur les relevés horaires.

4 Ensoleillement en heures relevé entre 06:00 UTC la veille et 06:00 UTC le jour donné.

5 Précipitations totales tombées entre 06:00 UTC la jour donné et 06:00 UTC le lendemain.

Graphiques horaires